Time;durP1;ratioP1;P1;durP2;ratioP2;P2;SDS_P1;SDS_P2;PMS_P1;PMS_P2;Temp;Humidity;BMP_temperature;BMP_pressure;BME280_temperature;BME280_humidity;BME280_pressure;Samples;Min_cycle;Max_cycle;Signal;HPM_P1;HPM_P2
2023/11/16 00:01:59;;;;;;;3.88;0.90;;;;;;;9.71;76.35;96953.13;4837595;29;20074;-90
2023/11/16 00:04:27;;;;;;;3.22;1.20;;;;;;;9.68;77.11;96964.66;4838530;29;20058;-90
2023/11/16 00:06:56;;;;;;;4.13;0.90;;;;;;;9.66;77.18;96966.66;4839843;29;20089;-89
2023/11/16 00:09:24;;;;;;;10.00;1.42;;;;;;;9.63;77.27;96966.16;4839443;29;20062;-90
2023/11/16 00:11:56;;;;;;;6.22;1.67;;;;;;;9.61;78.58;96970.72;4839135;29;20051;-90
2023/11/16 00:14:26;;;;;;;4.70;1.33;;;;;;;9.56;77.29;96973.84;4837086;29;20046;-88
2023/11/16 00:16:55;;;;;;;3.45;1.42;;;;;;;9.53;77.42;96968.13;4840632;29;20053;-89
2023/11/16 00:19:23;;;;;;;4.68;1.40;;;;;;;9.49;77.45;96965.06;4841298;29;20054;-90
2023/11/16 00:21:51;;;;;;;4.10;1.40;;;;;;;9.44;77.75;96960.31;4836639;29;20060;-90
2023/11/16 00:24:20;;;;;;;4.15;1.60;;;;;;;9.44;78.58;96972.53;4836871;29;20065;-87
2023/11/16 00:26:50;;;;;;;3.00;1.70;;;;;;;9.43;79.60;96963.13;4838133;29;20058;-88
2023/11/16 00:29:23;;;;;;;3.88;1.30;;;;;;;9.42;81.84;96967.53;4837745;29;20083;-86
2023/11/16 00:31:51;;;;;;;3.13;1.15;;;;;;;9.41;80.48;96965.06;4837262;29;20081;-88
2023/11/16 00:34:19;;;;;;;2.33;1.27;;;;;;;9.37;79.21;96956.78;4837852;29;20058;-87
2023/11/16 00:36:47;;;;;;;3.97;2.00;;;;;;;9.35;80.73;96952.72;4835186;29;20289;-90
2023/11/16 00:39:15;;;;;;;4.47;1.27;;;;;;;9.35;81.82;96953.50;4835646;29;20118;-88
2023/11/16 00:41:42;;;;;;;2.95;1.05;;;;;;;9.37;82.52;96955.97;4835300;29;20406;-89
2023/11/16 00:44:14;;;;;;;4.05;1.33;;;;;;;9.38;83.05;96949.75;4835376;29;20058;-83
2023/11/16 00:46:44;;;;;;;3.47;1.27;;;;;;;9.37;83.67;96954.16;4835223;29;20075;-91
2023/11/16 00:49:11;;;;;;;3.75;1.23;;;;;;;9.33;82.31;96950.25;4837415;29;20065;-86
2023/11/16 00:51:39;;;;;;;3.75;1.65;;;;;;;9.28;80.81;96947.34;4837126;29;20058;-88
2023/11/16 00:54:07;;;;;;;3.03;1.10;;;;;;;9.24;80.38;96946.06;4837831;29;20054;-87
2023/11/16 00:56:35;;;;;;;2.15;1.20;;;;;;;9.25;81.79;96952.91;4837469;29;20077;-88
2023/11/16 00:59:05;;;;;;;5.53;1.55;;;;;;;9.23;81.80;96954.84;4836004;29;20498;-84
2023/11/16 01:01:33;;;;;;;2.55;1.40;;;;;;;9.23;82.82;96952.25;4835921;29;20097;-91
2023/11/16 01:04:03;;;;;;;2.35;1.17;;;;;;;9.22;83.51;96948.00;4836631;29;20054;-88
2023/11/16 01:06:32;;;;;;;6.60;1.52;;;;;;;9.23;83.95;96944.44;4837589;29;20057;-86
2023/11/16 01:09:00;;;;;;;3.45;1.17;;;;;;;9.21;83.81;96947.19;4836228;29;20149;-85
2023/11/16 01:11:28;;;;;;;2.22;1.38;;;;;;;9.23;84.05;96953.06;4834880;29;20539;-85
2023/11/16 01:13:56;;;;;;;4.57;1.42;;;;;;;9.25;84.29;96956.31;4834071;29;20117;-86
2023/11/16 01:16:30;;;;;;;2.90;1.65;;;;;;;9.27;85.78;96956.97;4834345;29;20050;-86
2023/11/16 01:19:00;;;;;;;2.67;1.40;;;;;;;9.26;84.05;96962.31;4836213;29;20082;-87
2023/11/16 01:21:29;;;;;;;5.60;1.50;;;;;;;9.21;83.37;96959.41;4842684;29;20046;-89
2023/11/16 01:24:02;;;;;;;9.40;1.63;;;;;;;9.19;84.05;96958.75;4839905;29;20084;-91
2023/11/16 01:26:34;;;;;;;2.45;1.50;;;;;;;9.19;84.09;96956.97;4838729;29;20137;-90
2023/11/16 01:29:06;;;;;;;3.58;1.50;;;;;;;9.22;85.95;96954.00;4838651;29;20530;-86
2023/11/16 01:31:34;;;;;;;3.08;1.45;;;;;;;9.21;85.30;96952.41;4837244;29;20118;-86
2023/11/16 01:34:02;;;;;;;3.30;1.20;;;;;;;9.24;85.96;96946.06;4837944;29;20051;-88
2023/11/16 01:36:31;;;;;;;4.82;2.00;;;;;;;9.27;87.01;96946.53;4836253;29;20050;-89
2023/11/16 01:38:59;;;;;;;4.32;1.65;;;;;;;9.26;86.60;96939.69;4835044;29;20054;-87
2023/11/16 01:41:26;;;;;;;4.65;1.17;;;;;;;9.23;84.85;96936.63;4836502;29;20069;-85
2023/11/16 01:43:56;;;;;;;4.15;2.20;;;;;;;9.19;83.03;96932.72;4847752;29;20057;-90
2023/11/16 01:46:26;;;;;;;5.82;2.28;;;;;;;9.21;85.66;96925.56;4837204;29;20525;-90
2023/11/16 01:48:55;;;;;;;3.30;1.73;;;;;;;9.25;86.68;96932.88;4836966;29;20254;-89
2023/11/16 01:51:27;;;;;;;2.47;1.52;;;;;;;9.26;86.08;96928.47;4838319;29;20058;-91
2023/11/16 01:53:59;;;;;;;3.65;1.50;;;;;;;9.27;85.55;96932.69;4838521;29;20050;-89
2023/11/16 01:56:31;;;;;;;3.50;1.63;;;;;;;9.27;85.59;96930.09;4839233;29;20050;-91
2023/11/16 01:59:01;;;;;;;3.28;1.30;;;;;;;9.26;85.01;96923.28;4835698;29;20497;-90
2023/11/16 02:01:30;;;;;;;4.30;1.70;;;;;;;9.24;84.65;96930.44;4836108;29;20061;-90
2023/11/16 02:03:58;;;;;;;2.58;1.33;;;;;;;9.25;85.38;96929.47;4838117;29;20061;-89
2023/11/16 02:06:26;;;;;;;6.13;2.15;;;;;;;9.25;85.01;96932.88;4834787;29;20149;-87
2023/11/16 02:08:54;;;;;;;1.88;1.27;;;;;;;9.25;84.36;96935.47;4837355;29;20075;-88
2023/11/16 02:11:23;;;;;;;2.42;1.70;;;;;;;9.24;83.78;96935.63;4837540;29;20062;-90
2023/11/16 02:13:51;;;;;;;3.20;1.52;;;;;;;9.24;84.43;96939.03;4836183;29;20118;-87
2023/11/16 02:16:19;;;;;;;4.78;1.40;;;;;;;9.25;85.40;96932.06;4835625;29;20058;-92
2023/11/16 02:18:47;;;;;;;3.97;1.52;;;;;;;9.28;86.24;96924.72;4840136;29;20058;-86
2023/11/16 02:21:14;;;;;;;4.22;1.98;;;;;;;9.28;85.88;96916.13;4833954;29;20058;-84
2023/11/16 02:23:46;;;;;;;2.85;1.60;;;;;;;9.27;86.75;96922.28;4838603;29;20149;-88
2023/11/16 02:26:14;;;;;;;6.18;2.00;;;;;;;9.28;86.03;96926.53;4838774;29;20062;-90
2023/11/16 02:28:42;;;;;;;3.90;2.78;;;;;;;9.28;86.86;96932.53;4835831;29;20116;-90
2023/11/16 02:31:09;;;;;;;3.97;2.28;;;;;;;9.26;87.46;96926.69;4837643;29;20087;-91
2023/11/16 02:33:37;;;;;;;5.88;2.83;;;;;;;9.22;85.34;96922.78;4837954;29;20093;-89
2023/11/16 02:36:06;;;;;;;4.70;2.25;;;;;;;9.18;82.94;96915.47;4838370;29;20050;-88
2023/11/16 02:38:37;;;;;;;9.07;2.97;;;;;;;9.14;83.76;96915.00;4837548;29;20057;-90
2023/11/16 02:41:26;;;;;;;6.80;3.25;;;;;;;9.15;83.50;96915.81;4836163;29;20087;-89
2023/11/16 02:44:07;;;;;;;5.95;3.30;;;;;;;9.14;85.03;96914.16;4842138;29;20065;-90
2023/11/16 02:46:38;;;;;;;6.47;3.10;;;;;;;9.18;86.13;96911.09;4839787;29;20074;-88
2023/11/16 02:49:07;;;;;;;8.35;3.85;;;;;;;9.20;86.14;96923.94;4841304;29;20487;-89
2023/11/16 02:51:35;;;;;;;7.35;4.32;;;;;;;9.18;85.14;96921.50;4838969;29;20054;-89
2023/11/16 02:54:06;;;;;;;7.85;5.00;;;;;;;9.15;85.37;96921.00;4838154;29;20126;-90
2023/11/16 02:56:36;;;;;;;9.38;5.72;;;;;;;9.12;84.27;96916.13;4838750;29;20050;-89
2023/11/16 02:59:11;;;;;;;10.00;6.22;;;;;;;9.12;83.85;96923.94;4838049;29;20084;-91
2023/11/16 03:01:53;;;;;;;18.45;8.85;;;;;;;9.12;83.46;96921.31;4838247;29;20448;-89
2023/11/16 03:04:21;;;;;;;14.77;10.05;;;;;;;9.15;85.20;96926.22;4838988;29;20062;-92
2023/11/16 03:06:49;;;;;;;18.05;9.70;;;;;;;9.18;86.25;96921.50;4838183;29;20130;-91
2023/11/16 03:09:17;;;;;;;15.23;9.63;;;;;;;9.18;85.90;96921.50;4838355;29;20467;-89
2023/11/16 03:11:46;;;;;;;18.73;10.63;;;;;;;9.19;85.77;96917.91;4838172;29;20119;-90
2023/11/16 03:14:14;;;;;;;14.98;11.57;;;;;;;9.19;85.82;96922.31;4837349;29;20051;-86
2023/11/16 03:16:45;;;;;;;28.13;12.63;;;;;;;9.17;83.83;96929.47;4837892;29;20126;-87
2023/11/16 03:19:13;;;;;;;22.27;12.88;;;;;;;9.14;82.61;96932.38;4837171;29;20425;-87
2023/11/16 16:45:09;;;;;;;2.90;1.83;;;;;;;7.47;80.81;95852.69;5938653;23;20203;-79
2023/11/16 17:06:34;;;;;;;3.00;1.60;;;;;;;7.34;80.00;95789.25;5851440;23;20034;-80
2023/11/16 17:09:07;;;;;;;2.10;1.83;;;;;;;7.33;79.76;95785.06;4956336;23;20034;-80
2023/11/16 17:11:58;;;;;;;4.28;1.98;;;;;;;7.35;80.57;95777.91;4886896;29;20049;-81
2023/11/16 17:19:43;;;;;;;4.85;2.63;;;;;;;7.41;81.44;95769.38;4291444;23;20296;-80
